Time;durP1;ratioP1;P1;durP2;ratioP2;P2;SDS_P1;SDS_P2;PMS_P1;PMS_P2;Temp;Humidity;BMP_temperature;BMP_pressure;BME280_temperature;BME280_humidity;BME280_pressure;Samples;Min_cycle;Max_cycle;Signal;HPM_P1;HPM_P2
2023/09/04 00:01:29;;;;;;;8.85;6.22;;;15.70;99.90;;;;;;5072466;28;20059;-63
2023/09/04 00:03:55;;;;;;;6.65;5.95;;;15.70;99.90;;;;;;5071428;28;20140;-63
2023/09/04 00:06:21;;;;;;;8.23;6.65;;;15.70;99.90;;;;;;5071934;28;20098;-63
2023/09/04 00:08:48;;;;;;;7.15;6.45;;;15.70;99.90;;;;;;5071836;28;20052;-64
2023/09/04 00:11:14;;;;;;;7.63;6.63;;;15.70;99.90;;;;;;5071532;28;20066;-62
2023/09/04 00:13:41;;;;;;;8.23;6.85;;;15.60;99.90;;;;;;5071306;28;20463;-62
2023/09/04 00:16:07;;;;;;;8.98;7.05;;;15.60;99.90;;;;;;5071377;28;20373;-63
2023/09/04 00:18:34;;;;;;;8.15;7.35;;;15.60;99.90;;;;;;5071953;28;20119;-63
2023/09/04 00:21:00;;;;;;;7.93;7.00;;;15.70;99.90;;;;;;5071404;28;20041;-63
2023/09/04 00:23:26;;;;;;;8.50;6.57;;;15.70;99.90;;;;;;5071451;28;20048;-63
2023/09/04 00:25:54;;;;;;;7.50;6.68;;;15.60;99.90;;;;;;5071941;28;20092;-63
2023/09/04 00:28:20;;;;;;;7.28;6.53;;;15.50;99.90;;;;;;5071877;28;20053;-62
2023/09/04 00:30:47;;;;;;;7.13;6.43;;;15.50;99.90;;;;;;5071226;28;20056;-63
2023/09/04 00:33:14;;;;;;;7.20;6.50;;;15.50;99.90;;;;;;5071617;28;20045;-63
2023/09/04 00:35:41;;;;;;;8.20;6.82;;;15.50;99.90;;;;;;5070675;28;20457;-64
2023/09/04 00:38:07;;;;;;;7.70;6.68;;;15.40;99.90;;;;;;5071894;28;20056;-63
2023/09/04 00:40:33;;;;;;;7.18;6.47;;;15.40;99.90;;;;;;5071193;28;20045;-64
2023/09/04 00:42:59;;;;;;;6.90;6.20;;;15.30;99.90;;;;;;5071205;28;20453;-63
2023/09/04 00:45:26;;;;;;;6.63;5.97;;;15.30;99.90;;;;;;5071469;28;20461;-63
2023/09/04 00:47:52;;;;;;;7.32;6.38;;;15.20;99.90;;;;;;5074030;28;20338;-63
2023/09/04 00:50:22;;;;;;;7.82;7.03;;;15.10;99.90;;;;;;5074956;28;20075;-63
2023/09/04 00:52:50;;;;;;;7.10;6.05;;;15.10;99.90;;;;;;5075351;28;20044;-63
2023/09/04 00:55:18;;;;;;;7.05;6.15;;;15.10;99.90;;;;;;5074987;28;20052;-63
2023/09/04 00:57:44;;;;;;;7.55;6.32;;;15.10;99.90;;;;;;5075294;28;20052;-63
2023/09/04 01:00:13;;;;;;;7.15;6.45;;;15.10;99.90;;;;;;5074865;28;20044;-62
2023/09/04 01:02:41;;;;;;;6.70;6.07;;;15.00;99.90;;;;;;5075107;28;20068;-62
2023/09/04 01:05:07;;;;;;;8.10;6.65;;;15.00;99.90;;;;;;5073219;28;20048;-62
2023/09/04 01:07:35;;;;;;;8.02;6.75;;;15.00;99.90;;;;;;5074996;28;20044;-62
2023/09/04 01:10:03;;;;;;;8.13;6.40;;;14.90;99.90;;;;;;5074553;28;20057;-63
2023/09/04 01:12:40;;;;;;;7.03;6.28;;;14.90;99.90;;;;;;5074579;28;20545;-63
2023/09/04 01:15:08;;;;;;;7.00;6.28;;;14.90;99.90;;;;;;5074143;28;20400;-62
2023/09/04 01:17:36;;;;;;;7.45;6.57;;;14.90;99.90;;;;;;5074712;28;20045;-65
2023/09/04 01:20:23;;;;;;;7.72;6.53;;;14.90;99.90;;;;;;5074244;28;20044;-63
2023/09/04 01:22:49;;;;;;;7.63;6.43;;;14.80;99.90;;;;;;5074566;28;20058;-63
2023/09/04 01:25:16;;;;;;;7.82;6.90;;;14.80;99.90;;;;;;5073859;28;20052;-63
2023/09/04 01:27:55;;;;;;;7.45;6.57;;;14.70;99.90;;;;;;5074587;28;20056;-62
2023/09/04 01:30:34;;;;;;;7.95;7.15;;;14.80;99.90;;;;;;5073877;28;20044;-62
2023/09/04 01:33:04;;;;;;;8.07;6.65;;;14.70;99.90;;;;;;5074456;28;20049;-63
2023/09/04 01:35:32;;;;;;;8.57;7.18;;;14.60;99.90;;;;;;5074336;28;20040;-62
2023/09/04 01:37:59;;;;;;;8.75;7.80;;;14.50;99.90;;;;;;5074773;28;20364;-63
2023/09/04 01:40:25;;;;;;;7.80;7.00;;;14.60;99.90;;;;;;5073983;28;20068;-63
2023/09/04 01:42:51;;;;;;;8.40;7.13;;;14.50;99.90;;;;;;5074159;28;20060;-63
2023/09/04 01:45:18;;;;;;;8.57;7.35;;;14.60;99.90;;;;;;5073949;28;20060;-62
2023/09/04 01:47:46;;;;;;;7.88;7.03;;;14.50;99.90;;;;;;5074519;28;20052;-63
2023/09/04 01:50:12;;;;;;;8.10;7.30;;;14.50;99.90;;;;;;5074089;28;20062;-63
2023/09/04 01:52:39;;;;;;;9.15;7.57;;;14.50;99.90;;;;;;5073561;28;20115;-63
2023/09/04 01:55:05;;;;;;;8.65;7.50;;;14.50;99.90;;;;;;5056085;28;20096;-63
2023/09/04 01:57:31;;;;;;;9.13;7.70;;;14.40;99.90;;;;;;5074267;28;20052;-63
2023/09/04 01:59:58;;;;;;;10.82;8.02;;;14.40;99.90;;;;;;5072802;28;20509;-63
2023/09/04 02:02:24;;;;;;;9.23;7.85;;;14.50;99.90;;;;;;5072577;28;20052;-62
2023/09/04 02:04:50;;;;;;;9.00;7.60;;;14.40;99.90;;;;;;5073645;28;20423;-62
2023/09/04 02:07:16;;;;;;;8.90;7.75;;;14.30;99.90;;;;;;5074082;28;20060;-62
2023/09/04 02:09:43;;;;;;;8.48;7.43;;;14.30;99.90;;;;;;5073297;28;20086;-63
2023/09/04 02:12:09;;;;;;;9.02;8.07;;;14.40;99.90;;;;;;5073336;28;20045;-63
2023/09/04 02:14:35;;;;;;;8.38;7.50;;;14.40;99.90;;;;;;5073483;28;20040;-63
2023/09/04 02:17:01;;;;;;;8.48;7.63;;;14.40;99.90;;;;;;5073588;28;20044;-62
2023/09/04 02:19:28;;;;;;;10.98;7.90;;;14.30;99.90;;;;;;5073690;28;20040;-63
2023/09/04 02:21:54;;;;;;;10.15;7.28;;;14.40;99.90;;;;;;5073471;28;20099;-63
2023/09/04 02:24:20;;;;;;;7.68;6.47;;;14.30;99.90;;;;;;5072906;28;20449;-64
2023/09/04 02:26:46;;;;;;;9.90;7.68;;;14.40;99.90;;;;;;5073533;28;20048;-63
2023/09/04 02:29:12;;;;;;;8.63;7.20;;;14.40;99.90;;;;;;5072121;28;20077;-63
2023/09/04 02:31:39;;;;;;;7.78;6.97;;;14.30;99.90;;;;;;5055480;28;20052;-63
2023/09/04 02:34:05;;;;;;;8.85;7.45;;;14.30;99.90;;;;;;5072931;28;20364;-63
2023/09/04 02:36:31;;;;;;;9.18;8.02;;;14.40;99.90;;;;;;5073309;28;20048;-63
2023/09/04 02:38:58;;;;;;;9.27;7.60;;;14.30;99.90;;;;;;5072026;28;20044;-63
2023/09/04 02:41:24;;;;;;;9.55;7.80;;;14.30;99.90;;;;;;5072446;28;20056;-63
2023/09/04 02:43:50;;;;;;;10.45;7.30;;;14.20;99.90;;;;;;5072331;28;20106;-63
2023/09/04 02:46:16;;;;;;;8.77;7.60;;;14.20;99.90;;;;;;5072745;28;20245;-63
2023/09/04 02:48:42;;;;;;;8.85;7.80;;;14.10;99.90;;;;;;5073511;28;20060;-63
2023/09/04 02:51:09;;;;;;;10.52;7.35;;;14.10;99.90;;;;;;5072785;28;20385;-64
2023/09/04 02:53:35;;;;;;;8.57;7.53;;;14.10;99.90;;;;;;5072714;28;20044;-63
2023/09/04 02:56:01;;;;;;;9.15;7.97;;;14.00;99.90;;;;;;5073224;28;20052;-63
2023/09/04 02:58:28;;;;;;;9.27;7.88;;;14.00;99.90;;;;;;5072981;28;20078;-63
2023/09/04 03:00:54;;;;;;;8.57;7.68;;;14.10;99.90;;;;;;5072257;28;20048;-63
2023/09/04 03:03:20;;;;;;;9.98;7.85;;;14.00;99.90;;;;;;5072590;28;20048;-63
2023/09/04 03:05:47;;;;;;;10.60;8.45;;;14.10;99.90;;;;;;5072483;28;20129;-64
2023/09/04 03:08:14;;;;;;;9.30;7.50;;;14.00;99.90;;;;;;5072528;28;20347;-63
2023/09/04 03:10:40;;;;;;;8.80;7.28;;;13.90;99.90;;;;;;5071600;28;20045;-62
2023/09/04 03:13:06;;;;;;;9.10;8.15;;;14.00;99.90;;;;;;5072168;28;20044;-63
2023/09/04 03:15:32;;;;;;;9.30;8.23;;;13.90;99.90;;;;;;5072646;28;20067;-62
2023/09/04 03:17:59;;;;;;;8.70;7.80;;;13.90;99.90;;;;;;5072762;28;20060;-63
2023/09/04 03:20:25;;;;;;;8.45;7.60;;;13.90;99.90;;;;;;5072052;28;20381;-62
2023/09/04 03:22:52;;;;;;;8.70;7.68;;;13.80;99.90;;;;;;5072413;28;20060;-63
2023/09/04 03:25:18;;;;;;;9.75;8.02;;;13.90;99.90;;;;;;5071800;28;20060;-63
2023/09/04 03:27:44;;;;;;;9.32;7.78;;;13.90;99.90;;;;;;5072589;28;20049;-63
2023/09/04 03:30:11;;;;;;;8.55;7.65;;;13.80;99.90;;;;;;5072057;28;20106;-63
2023/09/04 03:32:37;;;;;;;8.65;6.88;;;13.80;99.90;;;;;;5072312;28;20045;-63
2023/09/04 03:35:04;;;;;;;7.78;6.97;;;13.90;99.90;;;;;;5071825;28;20056;-63
2023/09/04 03:37:35;;;;;;;8.50;7.40;;;13.80;99.90;;;;;;5072388;28;20055;-63
2023/09/04 03:40:18;;;;;;;8.90;7.30;;;13.90;99.90;;;;;;5072057;28;20052;-63
2023/09/04 03:42:44;;;;;;;7.90;7.05;;;13.90;99.90;;;;;;5071909;28;20048;-62
2023/09/04 03:45:10;;;;;;;7.97;7.18;;;13.80;99.90;;;;;;5071947;28;20425;-62
2023/09/04 03:47:36;;;;;;;8.88;7.60;;;13.80;99.90;;;;;;5072237;28;20526;-63
2023/09/04 03:50:03;;;;;;;9.05;7.22;;;13.80;99.90;;;;;;5071640;28;20416;-63
2023/09/04 03:52:29;;;;;;;8.68;7.47;;;13.80;99.90;;;;;;5072670;28;20117;-63
2023/09/04 03:54:56;;;;;;;8.23;7.32;;;13.80;99.90;;;;;;5071994;28;20059;-62
2023/09/04 03:57:22;;;;;;;8.55;7.03;;;13.70;99.90;;;;;;5072442;28;20045;-62
2023/09/04 03:59:52;;;;;;;8.88;7.90;;;13.70;99.90;;;;;;5071911;28;20056;-62
2023/09/04 04:02:18;;;;;;;8.43;7.20;;;13.70;99.90;;;;;;5071638;28;20036;-63
2023/09/04 04:04:45;;;;;;;8.82;7.93;;;13.70;99.90;;;;;;5072083;28;20174;-63
2023/09/04 04:07:11;;;;;;;7.97;7.07;;;13.60;99.90;;;;;;5072263;28;20060;-63
2023/09/04 04:09:37;;;;;;;9.05;7.50;;;13.60;99.90;;;;;;5071959;28;20052;-63
2023/09/04 04:12:06;;;;;;;10.48;7.57;;;13.50;99.90;;;;;;5072278;28;20499;-63
2023/09/04 04:14:32;;;;;;;9.40;7.57;;;13.60;99.90;;;;;;5072117;28;20098;-62
2023/09/04 04:16:58;;;;;;;8.95;7.63;;;13.60;99.90;;;;;;5072677;28;20049;-63
2023/09/04 04:19:24;;;;;;;10.25;8.18;;;13.50;99.90;;;;;;5072004;28;20051;-63
2023/09/04 04:21:50;;;;;;;9.18;7.25;;;13.50;99.90;;;;;;5072448;28;20060;-62
2023/09/04 04:24:17;;;;;;;8.18;7.20;;;13.60;99.90;;;;;;5075403;28;20048;-62
2023/09/04 04:26:43;;;;;;;8.40;7.03;;;13.50;99.90;;;;;;5075928;28;20052;-62
2023/09/04 04:29:09;;;;;;;9.70;7.65;;;13.50;99.90;;;;;;5075070;28;20440;-63
2023/09/04 04:31:35;;;;;;;9.90;7.28;;;13.40;99.90;;;;;;5075566;28;20076;-63
2023/09/04 04:34:02;;;;;;;8.73;7.45;;;13.40;99.90;;;;;;5057696;28;20114;-63
2023/09/04 04:36:28;;;;;;;8.50;7.60;;;13.30;99.90;;;;;;5075744;28;20045;-63
2023/09/04 04:38:54;;;;;;;10.10;7.65;;;13.40;99.90;;;;;;5075784;28;20051;-64
2023/09/04 04:41:21;;;;;;;9.40;7.47;;;13.40;99.90;;;;;;5075018;28;20401;-63
2023/09/04 04:43:47;;;;;;;8.93;7.32;;;13.30;99.90;;;;;;5075003;28;20052;-63
2023/09/04 04:46:15;;;;;;;11.98;9.80;;;13.30;99.90;;;;;;5057804;28;20154;-63
2023/09/04 04:48:41;;;;;;;10.88;8.45;;;13.40;99.90;;;;;;5076306;28;20063;-63
2023/09/04 04:51:09;;;;;;;10.35;7.95;;;13.40;99.90;;;;;;5075155;28;20056;-63
2023/09/04 04:53:36;;;;;;;10.32;7.68;;;13.40;99.90;;;;;;5075469;28;20051;-63
2023/09/04 04:56:02;;;;;;;10.20;8.10;;;13.30;99.90;;;;;;5075468;28;20041;-63
2023/09/04 04:58:28;;;;;;;10.98;8.00;;;13.30;99.90;;;;;;5057893;28;20127;-63
2023/09/04 05:00:55;;;;;;;12.70;8.02;;;13.30;99.90;;;;;;5074940;28;20101;-63
2023/09/04 05:03:21;;;;;;;8.45;7.32;;;13.40;99.90;;;;;;5075386;28;20056;-63
2023/09/04 05:05:47;;;;;;;9.18;8.02;;;13.30;99.90;;;;;;5075461;28;20059;-62
2023/09/04 05:08:13;;;;;;;9.98;7.43;;;13.30;99.90;;;;;;5075476;28;20157;-62
2023/09/04 05:10:40;;;;;;;8.15;7.35;;;13.20;99.90;;;;;;5075045;28;20048;-63
2023/09/04 05:13:06;;;;;;;9.20;7.80;;;13.20;99.90;;;;;;5074648;28;20391;-63
2023/09/04 05:15:32;;;;;;;9.07;7.30;;;13.20;99.90;;;;;;5074972;28;20055;-63
2023/09/04 05:17:59;;;;;;;9.98;7.97;;;13.30;99.90;;;;;;5075409;28;20040;-63
2023/09/04 05:20:25;;;;;;;9.68;7.38;;;13.20;99.90;;;;;;5074716;28;20053;-63
2023/09/04 05:22:51;;;;;;;9.32;7.45;;;13.20;99.90;;;;;;5074866;28;20086;-64
2023/09/04 05:25:17;;;;;;;9.40;7.75;;;13.20;99.90;;;;;;5075124;28;20059;-63
2023/09/04 05:27:45;;;;;;;10.43;8.13;;;13.30;99.90;;;;;;5075113;28;20045;-63
2023/09/04 05:30:11;;;;;;;11.35;8.63;;;13.30;99.90;;;;;;5068283;28;20056;-63
2023/09/04 05:32:38;;;;;;;9.02;7.75;;;13.30;99.90;;;;;;5074878;28;20127;-63
2023/09/04 05:35:04;;;;;;;8.80;7.78;;;13.40;99.90;;;;;;5073511;28;20143;-63
2023/09/04 05:37:31;;;;;;;10.32;8.07;;;13.30;99.90;;;;;;5075005;28;20063;-63
2023/09/04 05:39:57;;;;;;;11.35;8.05;;;13.40;99.90;;;;;;5074160;28;20059;-62
2023/09/04 05:42:23;;;;;;;9.20;8.13;;;13.40;99.90;;;;;;5074811;28;20063;-63
2023/09/04 05:44:50;;;;;;;10.48;8.38;;;13.60;99.90;;;;;;5073582;28;20048;-62
2023/09/04 05:47:16;;;;;;;9.40;8.27;;;14.10;99.90;;;;;;5074647;28;20044;-63
2023/09/04 05:49:42;;;;;;;10.52;8.75;;;14.90;99.90;;;;;;5074061;28;20049;-63
2023/09/04 05:52:08;;;;;;;9.88;7.80;;;15.70;99.90;;;;;;5074496;28;20569;-62
2023/09/04 05:54:35;;;;;;;9.73;8.45;;;16.30;99.90;;;;;;5056017;28;20044;-63
2023/09/04 05:57:01;;;;;;;10.60;7.60;;;16.90;99.90;;;;;;5074379;28;20098;-63
2023/09/04 05:59:27;;;;;;;9.50;8.18;;;17.50;99.90;;;;;;5074286;28;20052;-64
2023/09/04 06:01:54;;;;;;;8.93;8.02;;;17.90;99.90;;;;;;5074405;28;20058;-63
2023/09/04 06:04:20;;;;;;;10.05;7.90;;;18.20;99.90;;;;;;5074242;28;20103;-63
2023/09/04 06:06:46;;;;;;;10.25;8.15;;;18.50;99.90;;;;;;5074404;28;20064;-62
2023/09/04 06:09:12;;;;;;;10.35;7.70;;;18.70;99.90;;;;;;5073709;28;20465;-62
2023/09/04 06:11:39;;;;;;;9.48;7.82;;;19.10;99.90;;;;;;5074238;28;20131;-64
2023/09/04 06:14:05;;;;;;;9.10;8.20;;;19.40;99.90;;;;;;5074229;28;20052;-63
2023/09/04 06:16:33;;;;;;;10.48;8.13;;;19.50;99.90;;;;;;5074651;28;20048;-62
2023/09/04 06:18:59;;;;;;;9.68;8.02;;;19.50;99.90;;;;;;5074368;28;20422;-63
2023/09/04 06:21:25;;;;;;;9.13;8.10;;;19.60;99.90;;;;;;5073612;28;20044;-63
2023/09/04 06:23:52;;;;;;;9.40;8.32;;;19.70;99.90;;;;;;5073795;28;20070;-63
2023/09/04 06:26:19;;;;;;;9.23;7.65;;;19.90;99.90;;;;;;5074085;28;20135;-63
2023/09/04 06:28:45;;;;;;;9.02;8.13;;;20.10;99.90;;;;;;5073494;28;20452;-63
2023/09/04 06:31:11;;;;;;;10.57;7.85;;;20.00;99.90;;;;;;5072693;28;20420;-63
2023/09/04 06:33:37;;;;;;;9.43;7.70;;;19.90;99.90;;;;;;5073325;28;20052;-63
2023/09/04 06:36:05;;;;;;;9.63;8.20;;;19.90;99.90;;;;;;5073208;28;20357;-64
2023/09/04 06:38:31;;;;;;;9.10;8.20;;;20.00;99.90;;;;;;5073866;28;20128;-64
2023/09/04 06:40:57;;;;;;;9.30;7.97;;;20.00;99.90;;;;;;5072814;28;20118;-63
2023/09/04 06:43:28;;;;;;;9.18;7.85;;;20.30;99.90;;;;;;5073026;28;20060;-63
2023/09/04 06:45:54;;;;;;;9.02;8.13;;;20.30;99.90;;;;;;5072956;28;20071;-63
2023/09/04 06:48:20;;;;;;;8.93;8.02;;;20.40;99.90;;;;;;5073260;28;20196;-62
2023/09/04 06:50:50;;;;;;;9.93;7.72;;;20.40;99.90;;;;;;5072814;28;20048;-62
2023/09/04 06:53:17;;;;;;;8.40;7.50;;;20.60;99.90;;;;;;5072875;28;20397;-62
2023/09/04 06:55:44;;;;;;;8.90;7.80;;;20.70;99.90;;;;;;5073080;28;20044;-63
2023/09/04 06:58:10;;;;;;;8.63;7.43;;;20.90;99.90;;;;;;5073252;28;20048;-62
2023/09/04 07:00:37;;;;;;;8.15;7.43;;;21.10;99.90;;;;;;5072641;28;20128;-62
2023/09/04 07:03:04;;;;;;;8.68;7.45;;;21.00;99.90;;;;;;5072736;28;20469;-63
2023/09/04 07:05:31;;;;;;;8.63;7.18;;;21.00;99.90;;;;;;5071781;28;20063;-62
2023/09/04 07:07:57;;;;;;;8.73;7.07;;;20.80;99.90;;;;;;5072954;28;20102;-63
2023/09/04 07:10:23;;;;;;;8.30;7.50;;;20.70;99.90;;;;;;5065627;28;20153;-63
2023/09/04 07:12:51;;;;;;;8.13;7.15;;;20.40;99.90;;;;;;5072543;28;20106;-65
2023/09/04 07:15:17;;;;;;;7.68;6.97;;;20.20;99.90;;;;;;5072836;28;20218;-63
2023/09/04 07:17:43;;;;;;;8.23;7.35;;;19.90;99.90;;;;;;5072948;28;20045;-63
2023/09/04 07:20:14;;;;;;;8.43;7.60;;;19.80;99.90;;;;;;5071912;28;20063;-63
2023/09/04 07:22:41;;;;;;;7.88;7.07;;;19.70;99.90;;;;;;5072663;28;20040;-63
2023/09/04 07:25:07;;;;;;;8.43;7.13;;;19.70;99.90;;;;;;5072589;28;20369;-63
2023/09/04 07:27:33;;;;;;;9.27;6.85;;;19.80;99.90;;;;;;5072575;28;20048;-64
2023/09/04 07:30:00;;;;;;;8.07;7.28;;;19.70;99.90;;;;;;5072329;28;20372;-62
2023/09/04 07:32:26;;;;;;;9.00;6.80;;;19.70;99.90;;;;;;5072277;28;20059;-63
2023/09/04 07:34:56;;;;;;;8.10;7.10;;;19.80;99.90;;;;;;5072004;28;20140;-63
2023/09/04 07:37:27;;;;;;;8.50;7.30;;;19.70;99.90;;;;;;5072575;28;20044;-62
2023/09/04 07:39:54;;;;;;;7.88;6.85;;;19.70;99.90;;;;;;5072030;28;20471;-63
2023/09/04 07:42:21;;;;;;;7.20;6.50;;;19.80;99.90;;;;;;5072450;28;20105;-62
2023/09/04 07:44:47;;;;;;;7.60;6.90;;;20.00;99.90;;;;;;5071621;28;20469;-63
2023/09/04 07:47:14;;;;;;;7.25;6.45;;;20.20;99.90;;;;;;5072753;28;20052;-63
2023/09/04 07:49:40;;;;;;;7.03;6.38;;;20.20;99.90;;;;;;5072224;28;20098;-63
2023/09/04 07:52:06;;;;;;;7.45;6.75;;;20.30;99.90;;;;;;5072215;28;20464;-63
2023/09/04 07:54:33;;;;;;;7.50;6.55;;;20.40;99.90;;;;;;5072166;28;20045;-64
2023/09/04 07:57:02;;;;;;;7.15;6.50;;;20.50;99.90;;;;;;5071391;28;20456;-63
2023/09/04 07:59:29;;;;;;;7.00;6.25;;;20.40;99.90;;;;;;5071728;28;20117;-63
2023/09/04 08:01:55;;;;;;;8.40;5.97;;;20.50;99.90;;;;;;5072381;28;20051;-63
2023/09/04 08:04:21;;;;;;;7.57;5.97;;;20.50;99.90;;;;;;5071932;28;20049;-63
2023/09/04 08:06:47;;;;;;;6.55;5.57;;;20.70;99.90;;;;;;5072391;28;20060;-62
2023/09/04 08:09:14;;;;;;;7.68;6.00;;;20.70;99.90;;;;;;5072097;28;20048;-62
2023/09/04 08:11:41;;;;;;;8.90;6.15;;;20.90;99.90;;;;;;5071560;28;20053;-63
2023/09/04 08:14:07;;;;;;;6.88;6.20;;;20.90;99.90;;;;;;5071563;28;20059;-63
2023/09/04 08:16:33;;;;;;;8.20;5.80;;;21.00;99.90;;;;;;5071998;28;20052;-64
2023/09/04 08:19:00;;;;;;;6.82;5.65;;;21.00;99.90;;;;;;5072229;28;20059;-63
2023/09/04 08:21:26;;;;;;;6.63;5.65;;;21.10;99.90;;;;;;5071996;28;20055;-63
2023/09/04 08:23:52;;;;;;;6.32;5.72;;;21.20;99.90;;;;;;5070704;28;20064;-64
2023/09/04 08:26:18;;;;;;;6.25;5.22;;;21.20;99.90;;;;;;5071952;28;20052;-62
2023/09/04 08:28:45;;;;;;;7.55;5.57;;;21.20;99.90;;;;;;5071821;28;20052;-62
2023/09/04 08:31:11;;;;;;;8.18;6.03;;;21.30;99.90;;;;;;5071542;28;20048;-64
2023/09/04 08:33:38;;;;;;;8.23;5.30;;;21.40;99.90;;;;;;5071148;28;20457;-63
2023/09/04 08:36:04;;;;;;;6.47;5.25;;;21.60;99.90;;;;;;5083244;28;20558;-64
2023/09/04 08:38:31;;;;;;;7.88;5.88;;;21.50;99.90;;;;;;5091994;28;20545;-63
2023/09/04 08:41:02;;;;;;;7.82;5.78;;;21.70;99.90;;;;;;5078099;28;20132;-63
2023/09/04 08:43:30;;;;;;;;;;;21.70;99.90;;;;;;5071691;28;20352;-62
2023/09/04 08:45:59;;;;;;;5.20;4.68;;;21.80;99.90;;;;;;5071660;28;20222;-63
2023/09/04 08:48:29;;;;;;;7.57;5.50;;;22.00;99.90;;;;;;5072000;28;20445;-62
2023/09/04 08:50:56;;;;;;;6.20;5.13;;;21.80;99.90;;;;;;5071541;28;20438;-63
2023/09/04 08:53:23;;;;;;;8.43;5.40;;;21.70;99.90;;;;;;5073630;28;20055;-63
2023/09/04 08:55:50;;;;;;;5.50;5.00;;;21.70;99.90;;;;;;5092097;28;20056;-63
2023/09/04 08:58:17;;;;;;;5.93;4.80;;;21.90;99.90;;;;;;5092230;28;20143;-63
2023/09/04 09:00:47;;;;;;;5.75;4.90;;;22.00;99.90;;;;;;5062736;28;20478;-63
2023/09/04 09:03:14;;;;;;;7.03;5.18;;;22.00;99.90;;;;;;5071653;28;20044;-62
2023/09/04 09:05:42;;;;;;;5.18;4.50;;;22.00;99.90;;;;;;5071957;28;20102;-62
2023/09/04 09:08:10;;;;;;;6.57;5.10;;;22.00;99.90;;;;;;5072829;28;20080;-63
2023/09/04 09:10:36;;;;;;;5.40;4.50;;;22.10;99.90;;;;;;5075106;28;20044;-63
2023/09/04 09:13:03;;;;;;;5.50;4.80;;;22.10;99.90;;;;;;5075254;28;20084;-63
2023/09/04 09:15:32;;;;;;;5.45;4.10;;;22.10;99.90;;;;;;5075199;28;20064;-63
2023/09/04 09:17:58;;;;;;;5.97;4.25;;;22.20;99.90;;;;;;5075621;28;20040;-64
2023/09/04 09:20:33;;;;;;;4.72;3.97;;;22.40;99.90;;;;;;5074592;28;20052;-62
2023/09/04 09:23:00;;;;;;;7.38;4.30;;;22.50;99.90;;;;;;5074951;28;20506;-62
2023/09/04 09:25:27;;;;;;;6.30;4.68;;;22.50;99.90;;;;;;5075098;28;20063;-64
2023/09/04 09:28:04;;;;;;;6.57;4.20;;;22.40;99.90;;;;;;5074980;28;20049;-63
2023/09/04 09:30:38;;;;;;;5.13;3.75;;;22.40;99.90;;;;;;5074546;28;20045;-62
2023/09/04 09:33:17;;;;;;;4.20;3.35;;;22.50;99.90;;;;;;5074329;28;20059;-63
2023/09/04 09:35:44;;;;;;;4.72;3.30;;;22.50;99.90;;;;;;5074457;28;20052;-62
2023/09/04 09:38:11;;;;;;;5.03;3.63;;;22.60;99.90;;;;;;5074809;28;20341;-62
2023/09/04 09:40:37;;;;;;;4.28;3.83;;;22.60;99.90;;;;;;5074179;28;20064;-63
2023/09/04 09:43:03;;;;;;;4.30;3.58;;;22.80;99.90;;;;;;5074160;28;20063;-63
2023/09/04 09:45:35;;;;;;;4.85;3.75;;;22.80;99.90;;;;;;5074877;28;20106;-62
2023/09/04 09:48:10;;;;;;;4.70;3.40;;;22.80;99.90;;;;;;5075091;28;20053;-63
2023/09/04 09:50:37;;;;;;;4.65;3.55;;;23.00;99.90;;;;;;5073921;28;20468;-63
2023/09/04 09:53:04;;;;;;;4.93;3.85;;;22.90;99.90;;;;;;5073602;28;20341;-63
2023/09/04 09:55:32;;;;;;;4.45;3.78;;;23.00;99.90;;;;;;5074672;28;20060;-62
2023/09/04 09:57:59;;;;;;;5.82;3.88;;;23.00;99.90;;;;;;5074334;28;20048;-63
2023/09/04 10:00:26;;;;;;;5.00;4.07;;;23.00;99.90;;;;;;5059052;28;20044;-63
2023/09/04 10:02:55;;;;;;;6.60;3.80;;;22.90;99.90;;;;;;5073911;28;20078;-64
2023/09/04 10:05:23;;;;;;;6.20;4.70;;;23.00;99.90;;;;;;5094135;28;20062;-62
2023/09/04 10:07:56;;;;;;;5.72;4.05;;;23.10;99.90;;;;;;5094290;28;20055;-62
2023/09/04 10:10:23;;;;;;;4.68;3.80;;;23.20;99.90;;;;;;5086425;28;20089;-63
2023/09/04 10:12:59;;;;;;;5.00;3.90;;;23.10;99.90;;;;;;5073653;28;20052;-62
2023/09/04 10:15:28;;;;;;;4.50;4.03;;;23.30;99.90;;;;;;5073938;28;20040;-62
2023/09/04 10:18:06;;;;;;;6.25;3.40;;;23.40;99.90;;;;;;5073723;28;20048;-62
2023/09/04 10:20:35;;;;;;;4.35;3.50;;;23.50;99.90;;;;;;5072651;28;20040;-63
2023/09/04 10:23:14;;;;;;;5.10;3.60;;;23.50;99.90;;;;;;5093552;28;20071;-63
2023/09/04 10:25:53;;;;;;;4.18;3.75;;;23.60;99.90;;;;;;5094177;28;20127;-63
2023/09/04 10:28:40;;;;;;;4.95;3.40;;;23.70;99.90;;;;;;5093942;28;20121;-62
2023/09/04 10:31:06;;;;;;;9.38;3.65;;;23.70;99.90;;;;;;5079849;28;20052;-63
2023/09/04 10:33:36;;;;;;;4.65;3.30;;;23.70;99.90;;;;;;5072853;28;20381;-63
2023/09/04 10:36:03;;;;;;;4.30;3.33;;;23.80;99.90;;;;;;5073561;28;20060;-64
2023/09/04 10:38:30;;;;;;;5.60;3.47;;;23.70;99.90;;;;;;5073413;28;20052;-63
2023/09/04 10:40:57;;;;;;;4.78;3.70;;;23.70;99.90;;;;;;5072841;28;20036;-62
2023/09/04 10:43:43;;;;;;;6.28;4.15;;;23.80;99.90;;;;;;5072395;28;20053;-63
2023/09/04 10:46:13;;;;;;;5.15;3.53;;;23.90;99.90;;;;;;5073119;28;20128;-62
2023/09/04 10:48:48;;;;;;;5.47;3.30;;;23.90;99.90;;;;;;5073667;28;20059;-62
2023/09/04 10:51:29;;;;;;;5.88;3.90;;;24.10;99.90;;;;;;5072705;28;20071;-62
2023/09/04 10:53:58;;;;;;;5.35;4.28;;;24.30;99.90;;;;;;5072900;28;20044;-63
2023/09/04 10:56:25;;;;;;;5.00;4.05;;;24.20;99.90;;;;;;5073234;28;20059;-63
2023/09/04 10:58:58;;;;;;;4.93;3.95;;;24.10;99.90;;;;;;5073280;28;20048;-63
2023/09/04 11:01:32;;;;;;;8.40;4.07;;;24.20;99.90;;;;;;5072585;28;20051;-63
2023/09/04 11:04:01;;;;;;;5.40;4.05;;;24.20;99.90;;;;;;5072910;28;20109;-63
2023/09/04 11:06:28;;;;;;;5.93;4.05;;;24.30;99.90;;;;;;5072770;28;20045;-63
2023/09/04 11:08:54;;;;;;;4.25;3.85;;;24.50;99.90;;;;;;5072866;28;20054;-64
2023/09/04 11:11:25;;;;;;;6.80;4.80;;;24.60;99.90;;;;;;5072466;28;20044;-63
2023/09/04 11:14:03;;;;;;;6.15;4.40;;;24.50;99.90;;;;;;5072211;28;20433;-63
2023/09/04 11:16:38;;;;;;;6.45;4.47;;;24.50;99.90;;;;;;5072965;28;20052;-62
2023/09/04 11:19:07;;;;;;;4.30;3.83;;;24.40;99.90;;;;;;5072870;28;20056;-64
2023/09/04 11:21:36;;;;;;;5.63;4.00;;;24.50;99.90;;;;;;5071952;28;20354;-64
2023/09/04 11:24:04;;;;;;;4.80;4.00;;;24.60;99.90;;;;;;5072177;28;20372;-63
2023/09/04 11:26:31;;;;;;;5.60;3.80;;;24.70;99.90;;;;;;5072810;28;20139;-63
2023/09/04 11:29:02;;;;;;;6.50;4.47;;;24.80;99.90;;;;;;5072755;28;20113;-63
2023/09/04 11:31:31;;;;;;;5.38;3.95;;;24.80;99.90;;;;;;5071191;28;20045;-64
2023/09/04 11:33:57;;;;;;;4.18;3.78;;;24.90;99.90;;;;;;5071806;28;20044;-63
2023/09/04 11:36:24;;;;;;;5.78;3.85;;;25.00;99.90;;;;;;5072243;28;20053;-63
2023/09/04 11:39:12;;;;;;;11.45;4.78;;;25.00;99.90;;;;;;5072500;28;20044;-62
2023/09/04 11:41:39;;;;;;;4.97;3.95;;;25.00;99.90;;;;;;5072116;28;20040;-63
2023/09/04 11:44:06;;;;;;;7.97;3.67;;;25.00;99.90;;;;;;5071407;28;20107;-64
2023/09/04 11:46:34;;;;;;;5.95;3.50;;;25.10;99.90;;;;;;5054829;28;20044;-63
2023/09/04 11:49:04;;;;;;;4.50;3.70;;;25.20;99.90;;;;;;5072710;28;20056;-63
2023/09/04 11:51:32;;;;;;;5.80;3.92;;;25.20;99.90;;;;;;5071691;28;20376;-63
2023/09/04 11:53:59;;;;;;;4.57;3.40;;;25.20;99.90;;;;;;5071762;28;20045;-64
2023/09/04 11:56:25;;;;;;;4.47;3.70;;;25.30;99.90;;;;;;5071880;28;20139;-63
2023/09/04 11:58:52;;;;;;;4.70;3.70;;;25.20;99.90;;;;;;5071857;28;20427;-64
2023/09/04 12:01:19;;;;;;;3.97;3.13;;;25.30;99.90;;;;;;5071824;28;20063;-63
2023/09/04 12:03:45;;;;;;;5.85;4.20;;;25.30;99.90;;;;;;5071787;28;20369;-61
2023/09/04 12:06:11;;;;;;;4.30;3.10;;;25.30;99.90;;;;;;5071773;28;20060;-62
2023/09/04 12:08:38;;;;;;;5.85;4.10;;;25.40;99.90;;;;;;5072175;28;20048;-63
2023/09/04 12:11:04;;;;;;;4.70;3.47;;;25.50;99.90;;;;;;5071786;28;20048;-63
2023/09/04 12:13:30;;;;;;;5.30;3.63;;;25.40;99.90;;;;;;5071840;28;20407;-62
2023/09/04 12:16:07;;;;;;;6.13;3.88;;;25.40;99.90;;;;;;5072136;28;20056;-63
2023/09/04 12:18:35;;;;;;;4.15;3.35;;;25.40;99.90;;;;;;5071631;28;20362;-63
2023/09/04 12:21:09;;;;;;;4.07;3.17;;;25.50;99.90;;;;;;5071795;28;20167;-62
2023/09/04 12:23:46;;;;;;;4.00;3.00;;;25.50;99.90;;;;;;5071284;28;20408;-63
2023/09/04 12:26:15;;;;;;;4.22;3.05;;;25.60;99.90;;;;;;5071351;28;20059;-63
2023/09/04 12:28:43;;;;;;;3.90;3.13;;;25.50;99.90;;;;;;5071488;28;20464;-64
2023/09/04 12:31:13;;;;;;;3.90;3.05;;;25.50;99.90;;;;;;5071259;28;20052;-62
2023/09/04 12:33:41;;;;;;;5.30;3.28;;;25.50;99.90;;;;;;5071637;28;20049;-63
2023/09/04 12:36:08;;;;;;;3.83;3.03;;;25.50;99.90;;;;;;5071557;28;20048;-63
2023/09/04 12:38:36;;;;;;;4.10;2.90;;;25.50;99.90;;;;;;5071074;28;20485;-63
2023/09/04 12:41:03;;;;;;;4.55;2.90;;;25.50;99.90;;;;;;5071178;28;20055;-64
2023/09/04 12:43:29;;;;;;;5.45;3.22;;;25.50;99.90;;;;;;5072407;28;20044;-64
2023/09/04 12:45:56;;;;;;;4.22;3.20;;;25.50;99.90;;;;;;5075352;28;20055;-64
2023/09/04 12:48:23;;;;;;;4.63;2.83;;;25.50;99.90;;;;;;5075649;28;20127;-63